sensor_id;sensor_type;location;lat;lon;timestamp;temperature;humidity
11005;DHT22;5555;59.622;16.556;2023-02-28T00:02:18;2.60;99.90
11005;DHT22;5555;59.622;16.556;2023-02-28T00:04:43;2.50;99.90
11005;DHT22;5555;59.622;16.556;2023-02-28T00:07:09;2.50;99.90
11005;DHT22;5555;59.622;16.556;2023-02-28T00:09:35;2.50;99.90
11005;DHT22;5555;59.622;16.556;2023-02-28T00:12:00;2.60;99.90
11005;DHT22;5555;59.622;16.556;2023-02-28T00:14:35;2.60;99.90
11005;DHT22;5555;59.622;16.556;2023-02-28T00:17:01;2.50;99.90
11005;DHT22;5555;59.622;16.556;2023-02-28T00:19:27;2.50;99.90
11005;DHT22;5555;59.622;16.556;2023-02-28T00:21:52;2.40;99.90
11005;DHT22;5555;59.622;16.556;2023-02-28T00:24:18;2.30;99.90
11005;DHT22;5555;59.622;16.556;2023-02-28T00:26:43;2.20;99.90
11005;DHT22;5555;59.622;16.556;2023-02-28T00:29:10;2.00;99.90
11005;DHT22;5555;59.622;16.556;2023-02-28T00:31:35;2.00;99.90
11005;DHT22;5555;59.622;16.556;2023-02-28T00:34:01;1.90;99.90
11005;DHT22;5555;59.622;16.556;2023-02-28T00:36:27;1.70;99.90
11005;DHT22;5555;59.622;16.556;2023-02-28T00:38:52;1.60;99.90
11005;DHT22;5555;59.622;16.556;2023-02-28T00:41:18;1.60;99.90
11005;DHT22;5555;59.622;16.556;2023-02-28T00:43:43;1.50;99.90
11005;DHT22;5555;59.622;16.556;2023-02-28T00:46:09;1.50;99.90
11005;DHT22;5555;59.622;16.556;2023-02-28T00:48:35;1.40;99.90
11005;DHT22;5555;59.622;16.556;2023-02-28T00:51:01;1.30;99.90
11005;DHT22;5555;59.622;16.556;2023-02-28T00:53:26;1.30;99.90
11005;DHT22;5555;59.622;16.556;2023-02-28T00:55:52;1.10;99.90
11005;DHT22;5555;59.622;16.556;2023-02-28T00:58:18;1.10;99.90
11005;DHT22;5555;59.622;16.556;2023-02-28T01:00:43;1.00;99.90
11005;DHT22;5555;59.622;16.556;2023-02-28T01:03:17;0.90;99.90
11005;DHT22;5555;59.622;16.556;2023-02-28T01:05:44;0.90;99.90
11005;DHT22;5555;59.622;16.556;2023-02-28T01:08:09;0.80;99.90
11005;DHT22;5555;59.622;16.556;2023-02-28T01:10:35;0.80;99.90
11005;DHT22;5555;59.622;16.556;2023-02-28T01:13:02;0.80;99.90
11005;DHT22;5555;59.622;16.556;2023-02-28T01:15:28;0.90;99.90
11005;DHT22;5555;59.622;16.556;2023-02-28T01:17:54;0.80;99.90
11005;DHT22;5555;59.622;16.556;2023-02-28T01:20:19;0.80;99.90
11005;DHT22;5555;59.622;16.556;2023-02-28T01:22:45;0.70;99.90
11005;DHT22;5555;59.622;16.556;2023-02-28T01:25:12;0.60;99.90
11005;DHT22;5555;59.622;16.556;2023-02-28T01:27:38;0.50;99.90
11005;DHT22;5555;59.622;16.556;2023-02-28T01:30:06;0.40;99.90
11005;DHT22;5555;59.622;16.556;2023-02-28T01:32:32;0.40;99.90
11005;DHT22;5555;59.622;16.556;2023-02-28T01:34:57;0.40;99.90
11005;DHT22;5555;59.622;16.556;2023-02-28T01:37:23;0.30;99.90
11005;DHT22;5555;59.622;16.556;2023-02-28T01:39:48;0.10;99.90
11005;DHT22;5555;59.622;16.556;2023-02-28T01:42:14;0.20;99.90
11005;DHT22;5555;59.622;16.556;2023-02-28T01:45:02;0.10;99.90
11005;DHT22;5555;59.622;16.556;2023-02-28T01:47:40;0.10;99.90
11005;DHT22;5555;59.622;16.556;2023-02-28T01:50:11;0.10;99.90
11005;DHT22;5555;59.622;16.556;2023-02-28T01:52:38;0.00;99.90
11005;DHT22;5555;59.622;16.556;2023-02-28T01:55:05;0.00;99.90
11005;DHT22;5555;59.622;16.556;2023-02-28T01:57:38;-0.10;99.90
11005;DHT22;5555;59.622;16.556;2023-02-28T02:00:11;-0.20;99.90
11005;DHT22;5555;59.622;16.556;2023-02-28T02:02:44;-0.30;99.90
11005;DHT22;5555;59.622;16.556;2023-02-28T02:05:16;-0.40;99.90
11005;DHT22;5555;59.622;16.556;2023-02-28T02:07:44;-0.50;99.90
11005;DHT22;5555;59.622;16.556;2023-02-28T02:10:16;-0.40;99.90
11005;DHT22;5555;59.622;16.556;2023-02-28T02:18:09;-0.40;99.90
11005;DHT22;5555;59.622;16.556;2023-02-28T02:23:51;-0.40;99.90
11005;DHT22;5555;59.622;16.556;2023-02-28T02:35:28;-0.70;99.90
11005;DHT22;5555;59.622;16.556;2023-02-28T02:38:06;-0.70;99.90
11005;DHT22;5555;59.622;16.556;2023-02-28T02:40:39;-0.70;99.90
11005;DHT22;5555;59.622;16.556;2023-02-28T02:43:48;-0.80;99.90
11005;DHT22;5555;59.622;16.556;2023-02-28T02:46:25;-0.80;99.90
11005;DHT22;5555;59.622;16.556;2023-02-28T02:48:54;-0.70;99.90
11005;DHT22;5555;59.622;16.556;2023-02-28T02:51:23;-0.80;99.90
11005;DHT22;5555;59.622;16.556;2023-02-28T02:53:54;-0.80;99.90
11005;DHT22;5555;59.622;16.556;2023-02-28T02:56:24;-0.80;99.90
11005;DHT22;5555;59.622;16.556;2023-02-28T02:58:53;-0.90;99.90
11005;DHT22;5555;59.622;16.556;2023-02-28T03:01:22;-0.90;99.90
11005;DHT22;5555;59.622;16.556;2023-02-28T03:04:10;-0.90;99.90
11005;DHT22;5555;59.622;16.556;2023-02-28T03:06:37;-0.90;99.90
11005;DHT22;5555;59.622;16.556;2023-02-28T03:09:03;-0.90;99.90
11005;DHT22;5555;59.622;16.556;2023-02-28T03:11:29;-0.80;99.90
11005;DHT22;5555;59.622;16.556;2023-02-28T03:23:36;-1.20;99.90
11005;DHT22;5555;59.622;16.556;2023-02-28T03:26:05;-1.30;99.90
11005;DHT22;5555;59.622;16.556;2023-02-28T03:28:43;-1.10;99.90
11005;DHT22;5555;59.622;16.556;2023-02-28T03:34:03;-1.00;99.90
11005;DHT22;5555;59.622;16.556;2023-02-28T03:36:36;-1.00;99.90
11005;DHT22;5555;59.622;16.556;2023-02-28T03:39:23;-1.00;99.90
11005;DHT22;5555;59.622;16.556;2023-02-28T03:42:04;-0.90;99.90
11005;DHT22;5555;59.622;16.556;2023-02-28T03:50:01;-0.90;99.90
11005;DHT22;5555;59.622;16.556;2023-02-28T03:52:33;-0.90;99.90
11005;DHT22;5555;59.622;16.556;2023-02-28T03:55:03;-0.90;99.90
11005;DHT22;5555;59.622;16.556;2023-02-28T04:00:21;-1.00;99.90
11005;DHT22;5555;59.622;16.556;2023-02-28T04:02:53;-1.10;99.90
11005;DHT22;5555;59.622;16.556;2023-02-28T04:05:21;-1.30;99.90
11005;DHT22;5555;59.622;16.556;2023-02-28T04:07:47;-1.40;99.90
11005;DHT22;5555;59.622;16.556;2023-02-28T04:10:15;-1.40;99.90
11005;DHT22;5555;59.622;16.556;2023-02-28T04:12:41;-1.50;99.90
11005;DHT22;5555;59.622;16.556;2023-02-28T04:15:07;-1.60;99.90
11005;DHT22;5555;59.622;16.556;2023-02-28T04:17:33;-1.60;99.90
11005;DHT22;5555;59.622;16.556;2023-02-28T04:19:59;-1.60;99.90
11005;DHT22;5555;59.622;16.556;2023-02-28T04:22:25;-1.50;99.90
11005;DHT22;5555;59.622;16.556;2023-02-28T04:24:53;-1.60;99.90
11005;DHT22;5555;59.622;16.556;2023-02-28T04:27:20;-1.60;99.90
11005;DHT22;5555;59.622;16.556;2023-02-28T04:29:46;-1.70;99.90
11005;DHT22;5555;59.622;16.556;2023-02-28T04:32:12;-1.60;99.90
11005;DHT22;5555;59.622;16.556;2023-02-28T04:34:38;-1.70;99.90
11005;DHT22;5555;59.622;16.556;2023-02-28T04:37:04;-1.70;99.90
11005;DHT22;5555;59.622;16.556;2023-02-28T04:39:29;-1.70;99.90
11005;DHT22;5555;59.622;16.556;2023-02-28T04:41:55;-1.70;99.90
11005;DHT22;5555;59.622;16.556;2023-02-28T04:44:21;-1.70;99.90
11005;DHT22;5555;59.622;16.556;2023-02-28T04:46:48;-1.70;99.90
11005;DHT22;5555;59.622;16.556;2023-02-28T04:49:14;-1.70;99.90
11005;DHT22;5555;59.622;16.556;2023-02-28T04:51:41;-1.70;99.90
11005;DHT22;5555;59.622;16.556;2023-02-28T04:54:07;-1.70;99.90
11005;DHT22;5555;59.622;16.556;2023-02-28T04:56:33;-1.80;99.90
11005;DHT22;5555;59.622;16.556;2023-02-28T04:58:59;-1.70;99.90
11005;DHT22;5555;59.622;16.556;2023-02-28T05:01:29;-1.70;99.90
11005;DHT22;5555;59.622;16.556;2023-02-28T05:03:56;-1.80;99.90
11005;DHT22;5555;59.622;16.556;2023-02-28T05:06:27;-1.80;99.90
11005;DHT22;5555;59.622;16.556;2023-02-28T05:08:53;-1.70;99.90
11005;DHT22;5555;59.622;16.556;2023-02-28T05:11:30;-1.70;99.90
11005;DHT22;5555;59.622;16.556;2023-02-28T05:14:03;-1.60;99.90
11005;DHT22;5555;59.622;16.556;2023-02-28T05:16:29;-1.60;99.90
11005;DHT22;5555;59.622;16.556;2023-02-28T05:18:55;-1.50;99.90
11005;DHT22;5555;59.622;16.556;2023-02-28T05:23:59;-1.70;99.90
11005;DHT22;5555;59.622;16.556;2023-02-28T05:26:26;-1.80;99.90
11005;DHT22;5555;59.622;16.556;2023-02-28T05:28:52;-1.70;99.90
11005;DHT22;5555;59.622;16.556;2023-02-28T05:31:17;-1.70;99.90
11005;DHT22;5555;59.622;16.556;2023-02-28T05:33:43;-1.70;99.90
11005;DHT22;5555;59.622;16.556;2023-02-28T05:36:09;-1.60;99.90
11005;DHT22;5555;59.622;16.556;2023-02-28T05:38:35;-1.60;99.90
11005;DHT22;5555;59.622;16.556;2023-02-28T05:41:04;-1.60;99.90
11005;DHT22;5555;59.622;16.556;2023-02-28T05:43:29;-1.70;99.90
11005;DHT22;5555;59.622;16.556;2023-02-28T05:45:56;-1.80;99.90
11005;DHT22;5555;59.622;16.556;2023-02-28T05:48:21;-1.80;99.90
11005;DHT22;5555;59.622;16.556;2023-02-28T05:50:47;-1.80;99.90
11005;DHT22;5555;59.622;16.556;2023-02-28T05:53:12;-1.80;99.90
11005;DHT22;5555;59.622;16.556;2023-02-28T05:55:38;-1.90;99.90
11005;DHT22;5555;59.622;16.556;2023-02-28T05:58:04;-2.00;99.90
11005;DHT22;5555;59.622;16.556;2023-02-28T06:00:30;-2.00;99.90
11005;DHT22;5555;59.622;16.556;2023-02-28T06:02:55;-1.90;99.90
11005;DHT22;5555;59.622;16.556;2023-02-28T06:05:23;-1.70;99.90
11005;DHT22;5555;59.622;16.556;2023-02-28T06:07:49;-1.60;99.90
11005;DHT22;5555;59.622;16.556;2023-02-28T06:10:15;-1.60;99.90
11005;DHT22;5555;59.622;16.556;2023-02-28T06:12:41;-1.50;99.90
11005;DHT22;5555;59.622;16.556;2023-02-28T06:15:10;-1.40;99.90
11005;DHT22;5555;59.622;16.556;2023-02-28T06:17:36;-1.30;99.90
11005;DHT22;5555;59.622;16.556;2023-02-28T06:20:03;-1.30;99.90
11005;DHT22;5555;59.622;16.556;2023-02-28T06:22:28;-1.40;99.90
11005;DHT22;5555;59.622;16.556;2023-02-28T06:24:54;-1.40;99.90
11005;DHT22;5555;59.622;16.556;2023-02-28T06:27:22;-1.30;99.90
11005;DHT22;5555;59.622;16.556;2023-02-28T06:29:47;-1.20;99.90
11005;DHT22;5555;59.622;16.556;2023-02-28T06:32:13;-1.20;99.90
11005;DHT22;5555;59.622;16.556;2023-02-28T06:34:39;-1.10;99.90
11005;DHT22;5555;59.622;16.556;2023-02-28T06:37:04;-1.10;99.90
11005;DHT22;5555;59.622;16.556;2023-02-28T06:39:31;-1.00;99.90
11005;DHT22;5555;59.622;16.556;2023-02-28T06:41:56;-1.00;99.90
11005;DHT22;5555;59.622;16.556;2023-02-28T06:44:23;-1.00;99.90
11005;DHT22;5555;59.622;16.556;2023-02-28T06:46:49;-0.90;99.90
11005;DHT22;5555;59.622;16.556;2023-02-28T06:49:15;-0.80;99.90
11005;DHT22;5555;59.622;16.556;2023-02-28T06:51:43;-0.70;99.90
11005;DHT22;5555;59.622;16.556;2023-02-28T06:54:11;-0.70;99.90
11005;DHT22;5555;59.622;16.556;2023-02-28T06:56:37;-0.60;99.90
11005;DHT22;5555;59.622;16.556;2023-02-28T06:59:03;-0.50;99.90
11005;DHT22;5555;59.622;16.556;2023-02-28T07:01:29;-0.40;99.90
11005;DHT22;5555;59.622;16.556;2023-02-28T07:03:57;-0.30;99.90
11005;DHT22;5555;59.622;16.556;2023-02-28T07:06:22;-0.30;99.90
11005;DHT22;5555;59.622;16.556;2023-02-28T07:08:49;-0.20;99.90
11005;DHT22;5555;59.622;16.556;2023-02-28T07:11:15;-0.20;99.90
11005;DHT22;5555;59.622;16.556;2023-02-28T07:13:40;0.00;99.90
11005;DHT22;5555;59.622;16.556;2023-02-28T07:16:07;0.10;99.90
11005;DHT22;5555;59.622;16.556;2023-02-28T07:18:35;0.20;99.90
11005;DHT22;5555;59.622;16.556;2023-02-28T07:21:06;0.30;99.90
11005;DHT22;5555;59.622;16.556;2023-02-28T07:23:33;0.50;99.90
11005;DHT22;5555;59.622;16.556;2023-02-28T07:25:58;0.60;99.90
11005;DHT22;5555;59.622;16.556;2023-02-28T07:28:24;0.70;99.90
11005;DHT22;5555;59.622;16.556;2023-02-28T07:30:50;0.80;99.90
11005;DHT22;5555;59.622;16.556;2023-02-28T07:33:16;0.90;99.90
11005;DHT22;5555;59.622;16.556;2023-02-28T07:35:42;1.00;99.90
11005;DHT22;5555;59.622;16.556;2023-02-28T07:38:08;1.10;99.90
11005;DHT22;5555;59.622;16.556;2023-02-28T07:40:34;1.20;99.90
11005;DHT22;5555;59.622;16.556;2023-02-28T07:43:01;1.40;99.90
11005;DHT22;5555;59.622;16.556;2023-02-28T07:45:27;1.50;99.90
11005;DHT22;5555;59.622;16.556;2023-02-28T07:47:54;1.70;99.90
11005;DHT22;5555;59.622;16.556;2023-02-28T07:50:21;2.00;99.90
11005;DHT22;5555;59.622;16.556;2023-02-28T07:52:46;2.20;99.90
11005;DHT22;5555;59.622;16.556;2023-02-28T07:55:12;2.40;99.90
11005;DHT22;5555;59.622;16.556;2023-02-28T07:57:40;2.60;99.90
11005;DHT22;5555;59.622;16.556;2023-02-28T08:00:07;2.80;99.90
11005;DHT22;5555;59.622;16.556;2023-02-28T08:02:35;2.90;99.90
11005;DHT22;5555;59.622;16.556;2023-02-28T08:05:00;3.10;99.90
11005;DHT22;5555;59.622;16.556;2023-02-28T08:07:26;3.20;99.90
11005;DHT22;5555;59.622;16.556;2023-02-28T08:09:52;3.30;99.90
11005;DHT22;5555;59.622;16.556;2023-02-28T08:12:18;3.50;99.90
11005;DHT22;5555;59.622;16.556;2023-02-28T08:14:43;3.60;99.90
11005;DHT22;5555;59.622;16.556;2023-02-28T08:17:10;3.70;99.90
11005;DHT22;5555;59.622;16.556;2023-02-28T08:19:36;3.80;99.90
11005;DHT22;5555;59.622;16.556;2023-02-28T08:22:01;3.90;99.90
11005;DHT22;5555;59.622;16.556;2023-02-28T08:24:27;4.00;99.90
11005;DHT22;5555;59.622;16.556;2023-02-28T08:26:54;4.10;99.90
11005;DHT22;5555;59.622;16.556;2023-02-28T08:29:20;4.30;99.90
11005;DHT22;5555;59.622;16.556;2023-02-28T08:31:45;4.40;99.90
11005;DHT22;5555;59.622;16.556;2023-02-28T08:34:14;4.50;99.90
11005;DHT22;5555;59.622;16.556;2023-02-28T08:36:40;4.70;99.90
11005;DHT22;5555;59.622;16.556;2023-02-28T08:39:07;4.90;99.90
11005;DHT22;5555;59.622;16.556;2023-02-28T08:41:33;4.90;99.90
11005;DHT22;5555;59.622;16.556;2023-02-28T08:43:59;5.10;99.90
11005;DHT22;5555;59.622;16.556;2023-02-28T08:46:25;5.30;99.90
11005;DHT22;5555;59.622;16.556;2023-02-28T08:48:55;5.40;99.90
11005;DHT22;5555;59.622;16.556;2023-02-28T08:51:21;5.60;99.90
11005;DHT22;5555;59.622;16.556;2023-02-28T08:53:52;5.70;99.90
11005;DHT22;5555;59.622;16.556;2023-02-28T08:56:18;5.80;99.90
11005;DHT22;5555;59.622;16.556;2023-02-28T08:58:46;5.90;99.90
11005;DHT22;5555;59.622;16.556;2023-02-28T09:01:14;5.90;99.90
11005;DHT22;5555;59.622;16.556;2023-02-28T09:03:41;6.10;99.90
11005;DHT22;5555;59.622;16.556;2023-02-28T09:06:08;6.20;99.90
11005;DHT22;5555;59.622;16.556;2023-02-28T09:08:34;6.20;99.90
11005;DHT22;5555;59.622;16.556;2023-02-28T09:11:00;6.40;99.90
11005;DHT22;5555;59.622;16.556;2023-02-28T09:13:27;6.60;99.90
11005;DHT22;5555;59.622;16.556;2023-02-28T09:15:53;6.70;99.90
11005;DHT22;5555;59.622;16.556;2023-02-28T09:18:20;6.70;99.90
11005;DHT22;5555;59.622;16.556;2023-02-28T09:20:45;6.70;99.90
11005;DHT22;5555;59.622;16.556;2023-02-28T09:23:12;6.80;99.90
11005;DHT22;5555;59.622;16.556;2023-02-28T09:25:45;6.90;99.90
11005;DHT22;5555;59.622;16.556;2023-02-28T09:28:11;7.00;99.90
11005;DHT22;5555;59.622;16.556;2023-02-28T09:30:37;7.10;99.90
11005;DHT22;5555;59.622;16.556;2023-02-28T09:33:03;7.20;99.90
11005;DHT22;5555;59.622;16.556;2023-02-28T09:35:29;7.30;99.90
11005;DHT22;5555;59.622;16.556;2023-02-28T09:37:56;7.50;99.90
11005;DHT22;5555;59.622;16.556;2023-02-28T09:40:24;7.60;99.90
11005;DHT22;5555;59.622;16.556;2023-02-28T09:42:55;7.60;99.90
11005;DHT22;5555;59.622;16.556;2023-02-28T09:45:26;7.70;99.90
11005;DHT22;5555;59.622;16.556;2023-02-28T09:47:54;7.80;99.90
11005;DHT22;5555;59.622;16.556;2023-02-28T09:50:35;7.90;99.90
11005;DHT22;5555;59.622;16.556;2023-02-28T09:53:10;8.00;99.90
11005;DHT22;5555;59.622;16.556;2023-02-28T09:55:47;7.90;99.90
11005;DHT22;5555;59.622;16.556;2023-02-28T09:58:26;7.90;99.90
11005;DHT22;5555;59.622;16.556;2023-02-28T10:01:06;8.00;99.90
11005;DHT22;5555;59.622;16.556;2023-02-28T10:03:44;8.10;99.90
11005;DHT22;5555;59.622;16.556;2023-02-28T10:06:26;8.20;99.90
11005;DHT22;5555;59.622;16.556;2023-02-28T10:09:04;8.20;99.90
11005;DHT22;5555;59.622;16.556;2023-02-28T10:11:33;8.30;99.90
11005;DHT22;5555;59.622;16.556;2023-02-28T10:14:04;8.40;99.90
11005;DHT22;5555;59.622;16.556;2023-02-28T10:16:39;8.60;99.90
11005;DHT22;5555;59.622;16.556;2023-02-28T10:19:11;8.60;99.90
11005;DHT22;5555;59.622;16.556;2023-02-28T10:21:46;8.80;99.90
11005;DHT22;5555;59.622;16.556;2023-02-28T10:24:23;8.80;99.90
11005;DHT22;5555;59.622;16.556;2023-02-28T10:26:52;8.90;99.90
11005;DHT22;5555;59.622;16.556;2023-02-28T10:29:21;8.90;99.90
11005;DHT22;5555;59.622;16.556;2023-02-28T10:31:47;9.00;99.90
11005;DHT22;5555;59.622;16.556;2023-02-28T10:34:12;9.00;99.90
11005;DHT22;5555;59.622;16.556;2023-02-28T10:36:39;9.10;99.90
11005;DHT22;5555;59.622;16.556;2023-02-28T10:39:34;9.20;99.90
11005;DHT22;5555;59.622;16.556;2023-02-28T10:42:00;9.20;99.90
11005;DHT22;5555;59.622;16.556;2023-02-28T10:44:25;9.00;99.90
11005;DHT22;5555;59.622;16.556;2023-02-28T10:46:51;9.10;99.90
11005;DHT22;5555;59.622;16.556;2023-02-28T10:49:23;9.30;99.90
11005;DHT22;5555;59.622;16.556;2023-02-28T10:51:53;9.20;99.90
11005;DHT22;5555;59.622;16.556;2023-02-28T10:54:33;9.20;99.90
11005;DHT22;5555;59.622;16.556;2023-02-28T10:57:21;9.40;99.90
11005;DHT22;5555;59.622;16.556;2023-02-28T10:59:52;9.40;99.90
11005;DHT22;5555;59.622;16.556;2023-02-28T11:02:35;9.40;99.90
11005;DHT22;5555;59.622;16.556;2023-02-28T11:05:13;9.50;99.90
11005;DHT22;5555;59.622;16.556;2023-02-28T11:07:52;9.60;99.90
11005;DHT22;5555;59.622;16.556;2023-02-28T11:10:20;9.80;99.90
11005;DHT22;5555;59.622;16.556;2023-02-28T11:12:47;10.00;99.90
11005;DHT22;5555;59.622;16.556;2023-02-28T11:15:29;10.20;99.90
11005;DHT22;5555;59.622;16.556;2023-02-28T11:17:59;10.20;99.90
11005;DHT22;5555;59.622;16.556;2023-02-28T11:20:32;10.10;99.90
11005;DHT22;5555;59.622;16.556;2023-02-28T11:23:00;9.90;99.90
11005;DHT22;5555;59.622;16.556;2023-02-28T11:25:32;10.10;99.90
11005;DHT22;5555;59.622;16.556;2023-02-28T11:28:03;10.10;99.90
11005;DHT22;5555;59.622;16.556;2023-02-28T11:30:39;10.00;99.90
11005;DHT22;5555;59.622;16.556;2023-02-28T11:33:42;10.10;99.90
11005;DHT22;5555;59.622;16.556;2023-02-28T11:36:23;10.10;99.90
11005;DHT22;5555;59.622;16.556;2023-02-28T11:38:54;10.30;99.90
11005;DHT22;5555;59.622;16.556;2023-02-28T11:50:39;10.40;99.90
11005;DHT22;5555;59.622;16.556;2023-02-28T11:52:47;10.30;99.90
11005;DHT22;5555;59.622;16.556;2023-02-28T11:55:21;10.30;99.90
11005;DHT22;5555;59.622;16.556;2023-02-28T12:06:23;10.80;99.90
11005;DHT22;5555;59.622;16.556;2023-02-28T12:11:57;11.00;99.90
11005;DHT22;5555;59.622;16.556;2023-02-28T12:14:45;11.00;99.90
11005;DHT22;5555;59.622;16.556;2023-02-28T12:25:50;11.40;99.90
11005;DHT22;5555;59.622;16.556;2023-02-28T12:28:23;11.60;99.90
11005;DHT22;5555;59.622;16.556;2023-02-28T12:30:58;12.20;99.90
11005;DHT22;5555;59.622;16.556;2023-02-28T12:33:28;12.70;99.90
11005;DHT22;5555;59.622;16.556;2023-02-28T12:35:59;12.30;99.90
11005;DHT22;5555;59.622;16.556;2023-02-28T12:38:34;11.80;99.90
11005;DHT22;5555;59.622;16.556;2023-02-28T12:41:14;11.90;99.90
11005;DHT22;5555;59.622;16.556;2023-02-28T12:43:45;12.20;99.90
11005;DHT22;5555;59.622;16.556;2023-02-28T12:46:24;12.80;99.90
11005;DHT22;5555;59.622;16.556;2023-02-28T12:48:56;13.20;99.90
11005;DHT22;5555;59.622;16.556;2023-02-28T12:51:24;13.50;99.90
11005;DHT22;5555;59.622;16.556;2023-02-28T12:54:17;13.50;99.90
11005;DHT22;5555;59.622;16.556;2023-02-28T12:59:32;13.50;99.90
11005;DHT22;5555;59.622;16.556;2023-02-28T13:02:30;13.20;99.90
11005;DHT22;5555;59.622;16.556;2023-02-28T13:10:15;13.40;99.90
11005;DHT22;5555;59.622;16.556;2023-02-28T13:12:53;13.70;99.90
11005;DHT22;5555;59.622;16.556;2023-02-28T13:15:26;13.70;99.90
11005;DHT22;5555;59.622;16.556;2023-02-28T13:17:56;13.80;99.90
11005;DHT22;5555;59.622;16.556;2023-02-28T13:20:46;13.40;99.90
11005;DHT22;5555;59.622;16.556;2023-02-28T13:26:04;13.10;99.90
11005;DHT22;5555;59.622;16.556;2023-02-28T13:31:14;12.70;99.90
11005;DHT22;5555;59.622;16.556;2023-02-28T13:44:11;13.30;99.90
11005;DHT22;5555;59.622;16.556;2023-02-28T13:49:28;13.50;99.90
11005;DHT22;5555;59.622;16.556;2023-02-28T14:06:24;13.00;99.90
11005;DHT22;5555;59.622;16.556;2023-02-28T14:09:02;13.10;99.90
11005;DHT22;5555;59.622;16.556;2023-02-28T14:11:36;13.20;99.90
11005;DHT22;5555;59.622;16.556;2023-02-28T14:14:03;13.10;99.90
11005;DHT22;5555;59.622;16.556;2023-02-28T14:16:45;13.20;99.90
11005;DHT22;5555;59.622;16.556;2023-02-28T14:19:24;13.40;99.90
11005;DHT22;5555;59.622;16.556;2023-02-28T14:27:35;12.10;99.90
11005;DHT22;5555;59.622;16.556;2023-02-28T14:33:22;12.40;99.90
11005;DHT22;5555;59.622;16.556;2023-02-28T14:38:31;11.90;99.90
11005;DHT22;5555;59.622;16.556;2023-02-28T14:41:00;11.70;99.90
11005;DHT22;5555;59.622;16.556;2023-02-28T14:43:27;11.50;99.90
11005;DHT22;5555;59.622;16.556;2023-02-28T14:46:00;11.30;99.90
11005;DHT22;5555;59.622;16.556;2023-02-28T14:48:27;11.10;99.90
11005;DHT22;5555;59.622;16.556;2023-02-28T14:50:58;10.90;99.90
11005;DHT22;5555;59.622;16.556;2023-02-28T14:53:27;10.80;99.90
11005;DHT22;5555;59.622;16.556;2023-02-28T14:55:53;10.70;99.90
11005;DHT22;5555;59.622;16.556;2023-02-28T14:58:30;10.70;99.90
11005;DHT22;5555;59.622;16.556;2023-02-28T15:00:58;10.70;99.90
11005;DHT22;5555;59.622;16.556;2023-02-28T15:03:32;10.70;99.90
11005;DHT22;5555;59.622;16.556;2023-02-28T15:06:18;10.70;99.90
11005;DHT22;5555;59.622;16.556;2023-02-28T15:08:45;10.70;99.90
11005;DHT22;5555;59.622;16.556;2023-02-28T15:11:14;10.90;99.90
11005;DHT22;5555;59.622;16.556;2023-02-28T15:13:42;10.90;99.90
11005;DHT22;5555;59.622;16.556;2023-02-28T15:16:16;10.90;99.90
11005;DHT22;5555;59.622;16.556;2023-02-28T15:21:17;10.80;99.90
11005;DHT22;5555;59.622;16.556;2023-02-28T15:23:49;10.80;99.90
11005;DHT22;5555;59.622;16.556;2023-02-28T15:26:20;10.60;99.90
11005;DHT22;5555;59.622;16.556;2023-02-28T15:28:58;10.50;99.90
11005;DHT22;5555;59.622;16.556;2023-02-28T15:31:32;10.40;99.90
11005;DHT22;5555;59.622;16.556;2023-02-28T15:34:03;10.20;99.90
11005;DHT22;5555;59.622;16.556;2023-02-28T15:36:31;10.10;99.90
11005;DHT22;5555;59.622;16.556;2023-02-28T15:38:59;9.90;99.90
11005;DHT22;5555;59.622;16.556;2023-02-28T15:41:36;9.80;99.90
11005;DHT22;5555;59.622;16.556;2023-02-28T15:44:24;9.60;99.90
11005;DHT22;5555;59.622;16.556;2023-02-28T15:47:06;9.50;99.90
11005;DHT22;5555;59.622;16.556;2023-02-28T15:49:47;9.30;99.90
11005;DHT22;5555;59.622;16.556;2023-02-28T15:52:16;9.20;99.90
11005;DHT22;5555;59.622;16.556;2023-02-28T15:54:43;9.00;99.90
11005;DHT22;5555;59.622;16.556;2023-02-28T15:57:24;8.90;99.90
11005;DHT22;5555;59.622;16.556;2023-02-28T16:00:00;8.70;99.90
11005;DHT22;5555;59.622;16.556;2023-02-28T16:02:38;8.60;99.90
11005;DHT22;5555;59.622;16.556;2023-02-28T16:07:40;8.30;99.90
11005;DHT22;5555;59.622;16.556;2023-02-28T16:10:09;8.10;99.90
11005;DHT22;5555;59.622;16.556;2023-02-28T16:12:36;8.10;99.90
11005;DHT22;5555;59.622;16.556;2023-02-28T16:15:06;8.00;99.90
11005;DHT22;5555;59.622;16.556;2023-02-28T16:17:35;7.90;99.90
11005;DHT22;5555;59.622;16.556;2023-02-28T16:20:04;7.80;99.90
11005;DHT22;5555;59.622;16.556;2023-02-28T16:22:31;7.70;99.90
11005;DHT22;5555;59.622;16.556;2023-02-28T16:24:56;7.60;99.90
11005;DHT22;5555;59.622;16.556;2023-02-28T16:27:32;7.60;99.90
11005;DHT22;5555;59.622;16.556;2023-02-28T16:29:58;7.50;99.90
11005;DHT22;5555;59.622;16.556;2023-02-28T16:32:24;7.50;99.90
11005;DHT22;5555;59.622;16.556;2023-02-28T16:34:49;7.40;99.90
11005;DHT22;5555;59.622;16.556;2023-02-28T16:37:17;7.30;99.90
11005;DHT22;5555;59.622;16.556;2023-02-28T16:39:44;7.20;99.90
11005;DHT22;5555;59.622;16.556;2023-02-28T16:42:20;7.20;99.90
11005;DHT22;5555;59.622;16.556;2023-02-28T16:44:47;7.30;99.90
11005;DHT22;5555;59.622;16.556;2023-02-28T16:47:13;7.20;99.90
11005;DHT22;5555;59.622;16.556;2023-02-28T16:49:39;7.10;99.90
11005;DHT22;5555;59.622;16.556;2023-02-28T16:52:07;7.00;99.90
11005;DHT22;5555;59.622;16.556;2023-02-28T16:54:33;6.90;99.90
11005;DHT22;5555;59.622;16.556;2023-02-28T16:56:59;6.80;99.90
11005;DHT22;5555;59.622;16.556;2023-02-28T16:59:26;6.80;99.90
11005;DHT22;5555;59.622;16.556;2023-02-28T17:01:53;6.80;99.90
11005;DHT22;5555;59.622;16.556;2023-02-28T17:04:19;6.70;99.90
11005;DHT22;5555;59.622;16.556;2023-02-28T17:06:44;6.70;99.90
11005;DHT22;5555;59.622;16.556;2023-02-28T17:09:16;6.70;99.90
11005;DHT22;5555;59.622;16.556;2023-02-28T17:11:43;6.70;99.90
11005;DHT22;5555;59.622;16.556;2023-02-28T17:14:09;6.70;99.90
11005;DHT22;5555;59.622;16.556;2023-02-28T17:16:36;6.70;99.90
11005;DHT22;5555;59.622;16.556;2023-02-28T17:19:06;6.70;99.90
11005;DHT22;5555;59.622;16.556;2023-02-28T17:21:36;6.70;99.90
11005;DHT22;5555;59.622;16.556;2023-02-28T17:24:02;6.70;99.90
11005;DHT22;5555;59.622;16.556;2023-02-28T17:26:28;6.70;99.90
11005;DHT22;5555;59.622;16.556;2023-02-28T17:28:55;6.70;99.90
11005;DHT22;5555;59.622;16.556;2023-02-28T17:31:23;6.60;99.90
11005;DHT22;5555;59.622;16.556;2023-02-28T17:33:49;6.60;99.90
11005;DHT22;5555;59.622;16.556;2023-02-28T17:36:17;6.60;99.90
11005;DHT22;5555;59.622;16.556;2023-02-28T17:38:47;6.60;99.90
11005;DHT22;5555;59.622;16.556;2023-02-28T17:41:13;6.60;99.90
11005;DHT22;5555;59.622;16.556;2023-02-28T17:43:39;6.50;99.90
11005;DHT22;5555;59.622;16.556;2023-02-28T17:46:06;6.50;99.90
11005;DHT22;5555;59.622;16.556;2023-02-28T17:48:36;6.40;99.90
11005;DHT22;5555;59.622;16.556;2023-02-28T17:51:02;6.40;99.90
11005;DHT22;5555;59.622;16.556;2023-02-28T17:53:27;6.40;99.90
11005;DHT22;5555;59.622;16.556;2023-02-28T17:55:53;6.50;99.90
11005;DHT22;5555;59.622;16.556;2023-02-28T17:58:19;6.40;99.90
11005;DHT22;5555;59.622;16.556;2023-02-28T18:00:45;6.40;99.90
11005;DHT22;5555;59.622;16.556;2023-02-28T18:03:12;6.40;99.90